Time;durP1;ratioP1;P1;durP2;ratioP2;P2;SDS_P1;SDS_P2;PMS_P1;PMS_P2;Temp;Humidity;BMP_temperature;BMP_pressure;BME280_temperature;BME280_humidity;BME280_pressure;Samples;Min_cycle;Max_cycle;Signal;HPM_P1;HPM_P2
2022/11/03 06:54:23;;;;;;;7.90;4.30;;;;;;;24.16;47.02;101095.21;114301;1306;1878813;-92
2022/11/03 06:57:15;;;;;;;8.70;4.70;;;;;;;23.92;46.93;101097.03;119042;1272;103582;-86
2022/11/03 07:03:07;;;;;;;8.40;5.90;;;;;;;23.11;39.09;101159.92;115970;1304;545380;-73
2022/11/03 07:05:59;;;;;;;9.80;6.40;;;;;;;20.90;38.70;101160.29;119347;1272;22554;-69
2022/11/03 07:08:50;;;;;;;14.00;6.90;;;;;;;18.86;40.71;101166.81;119344;1272;22559;-72
2022/11/03 07:11:42;;;;;;;9.80;6.60;;;;;;;17.21;43.07;101171.13;119281;1272;22573;-73
2022/11/03 07:14:36;;;;;;;11.60;7.00;;;;;;;15.83;45.65;101177.66;119259;1272;22554;-69
2022/11/03 07:17:27;;;;;;;9.10;6.50;;;;;;;14.77;47.72;101176.92;119142;1268;354368;-70
2022/11/03 07:20:18;;;;;;;11.90;6.80;;;;;;;14.23;50.46;101181.26;119461;1268;24363;-71
2022/11/03 07:23:08;;;;;;;11.10;6.70;;;;;;;14.18;52.37;101185.85;119455;1269;22575;-71
2022/11/03 07:25:58;;;;;;;12.90;6.80;;;;;;;14.16;52.28;101179.09;119532;1268;22530;-70
2022/11/03 07:28:48;;;;;;;12.00;6.80;;;;;;;14.23;52.23;101180.05;119506;1268;22583;-72
2022/11/03 07:31:37;;;;;;;10.40;7.20;;;;;;;14.15;52.58;101171.79;117255;1269;1899934;-72
2022/11/03 07:34:29;;;;;;;12.80;7.60;;;;;;;13.71;53.19;101173.84;119104;1274;22554;-71
2022/11/03 07:37:20;;;;;;;19.30;8.00;;;;;;;13.24;53.74;101173.80;119004;1277;22933;-71
2022/11/03 07:40:17;;;;;;;10.30;7.20;;;;;;;12.77;54.56;101169.84;119041;1277;22561;-76
2022/11/03 07:43:16;;;;;;;13.60;8.30;;;;;;;12.57;56.16;101167.73;119201;1271;22639;-72
2022/11/03 07:46:07;;;;;;;11.60;7.50;;;;;;;12.84;56.44;101171.17;119292;1271;25444;-71
2022/11/03 07:48:58;;;;;;;15.40;9.50;;;;;;;13.03;56.31;101172.64;119522;1267;22547;-72
2022/11/03 07:51:47;;;;;;;9.90;7.10;;;;;;;13.31;56.48;101169.86;119462;1268;22576;-69
2022/11/03 07:54:36;;;;;;;9.60;6.70;;;;;;;13.66;56.17;101164.73;119475;1268;22581;-73
2022/11/03 07:57:27;;;;;;;14.80;7.30;;;;;;;14.07;55.56;101164.52;119477;1268;22561;-71
2022/11/03 08:00:20;;;;;;;;;;;;;;;14.59;55.20;101164.69;119502;1268;22537;-72
2022/11/03 08:03:17;;;;;;;12.30;6.70;;;;;;;15.10;54.15;101164.45;119451;1268;22553;-72
2022/11/03 08:06:06;;;;;;;15.00;8.40;;;;;;;15.54;53.52;101164.91;119856;1265;22549;-70
2022/11/03 08:08:55;;;;;;;10.60;6.80;;;;;;;15.66;52.77;101163.48;119869;1265;22565;-71
2022/11/03 08:11:44;;;;;;;11.20;6.90;;;;;;;15.44;52.47;101164.88;119837;1264;22563;-70
2022/11/03 08:14:34;;;;;;;12.60;7.60;;;;;;;15.01;52.55;101166.08;119838;1264;22552;-71
2022/11/03 08:17:23;;;;;;;12.90;7.10;;;;;;;14.50;53.07;101163.66;119811;1265;24238;-71
2022/11/03 08:20:12;;;;;;;;;;;;;;;14.00;53.72;101161.09;119852;1263;22534;-72
2022/11/03 08:23:01;;;;;;;17.00;8.30;;;;;;;13.58;54.60;101156.45;119797;1264;22551;-70
2022/11/03 08:25:51;;;;;;;11.10;7.50;;;;;;;13.29;55.16;101160.66;119838;1264;22551;-73
2022/11/03 08:28:40;;;;;;;11.70;7.40;;;;;;;13.04;56.25;101158.73;119846;1264;22575;-72
2022/11/03 08:31:29;;;;;;;15.70;7.50;;;;;;;12.81;57.45;101159.03;119800;1264;22558;-72
2022/11/03 08:35:59;;;;;;;13.90;7.90;;;;;;;12.77;59.83;101160.55;112596;1328;544740;-75
2022/11/03 08:38:48;;;;;;;12.20;8.00;;;;;;;12.79;59.69;101160.50;115484;1298;22565;-73
2022/11/03 08:41:37;;;;;;;14.10;7.50;;;;;;;12.89;59.33;101157.33;115703;1313;22482;-75
2022/11/03 08:44:26;;;;;;;10.60;6.50;;;;;;;13.05;58.71;101159.77;115715;1311;22486;-75
2022/11/03 08:47:15;;;;;;;13.80;6.90;;;;;;;13.12;58.49;101161.42;115685;1313;22482;-76
2022/11/03 08:50:04;;;;;;;11.70;6.60;;;;;;;13.29;58.73;101160.83;115573;1301;391725;-72
2022/11/03 08:52:53;;;;;;;11.40;5.80;;;;;;;13.51;59.25;101158.80;115904;1285;22513;-72
2022/11/03 08:55:41;;;;;;;9.20;5.50;;;;;;;13.83;59.27;101155.66;115885;1291;22463;-71
2022/11/03 08:58:30;;;;;;;15.70;5.90;;;;;;;14.24;58.76;101150.34;115832;1304;22499;-73
2022/11/03 09:01:19;;;;;;;9.10;5.70;;;;;;;14.75;58.06;101152.10;115841;1311;22541;-73
2022/11/03 09:04:08;;;;;;;11.00;5.50;;;;;;;15.33;57.81;101152.49;115880;1299;22496;-74
2022/11/03 09:06:57;;;;;;;10.50;5.00;;;;;;;16.11;55.80;101150.08;115778;1311;24270;-76
2022/11/03 09:09:46;;;;;;;7.30;5.10;;;;;;;16.78;54.82;101144.67;115875;1310;25428;-71
2022/11/03 09:12:35;;;;;;;7.50;4.70;;;;;;;17.46;53.93;101143.73;115866;1310;22492;-72
2022/11/03 09:15:24;;;;;;;12.90;4.80;;;;;;;17.97;52.11;101143.05;115857;1310;22492;-73
2022/11/03 09:18:13;;;;;;;8.60;5.10;;;;;;;18.40;51.06;101140.70;115823;1310;22478;-71
2022/11/03 09:21:02;;;;;;;11.60;5.20;;;;;;;18.88;50.04;101140.21;115841;1310;22494;-73
2022/11/03 09:23:51;;;;;;;7.60;4.30;;;;;;;19.30;48.12;101145.05;115881;1304;22480;-74
2022/11/03 09:26:40;;;;;;;7.60;3.90;;;;;;;19.58;47.92;101140.30;116286;1304;22465;-74
2022/11/03 09:29:29;;;;;;;8.40;4.40;;;;;;;19.98;47.29;101136.84;116315;1307;22469;-74
2022/11/03 09:32:18;;;;;;;8.20;4.20;;;;;;;20.43;46.18;101127.88;116290;1304;22470;-74
2022/11/03 09:35:11;;;;;;;11.20;4.00;;;;;;;20.64;44.75;101123.08;116311;1300;22492;-72
2022/11/03 09:37:59;;;;;;;6.80;4.10;;;;;;;20.95;44.69;101124.14;116319;1294;25184;-74
2022/11/03 09:40:49;;;;;;;7.80;4.20;;;;;;;21.25;43.29;101122.42;116333;1291;22411;-74
2022/11/03 09:43:37;;;;;;;;;;;;;;;21.46;43.28;101119.84;116314;1305;22469;-71
2022/11/03 09:46:26;;;;;;;5.30;4.40;;;;;;;21.70;42.80;101113.88;116282;1304;22491;-72
2022/11/03 09:49:16;;;;;;;9.70;4.80;;;;;;;21.92;41.58;101116.14;116273;1288;25835;-74
2022/11/03 09:52:05;;;;;;;10.50;4.90;;;;;;;21.97;41.01;101109.61;116163;1307;25386;-74
2022/11/03 09:54:55;;;;;;;10.70;4.40;;;;;;;21.97;41.61;101109.38;116279;1287;22462;-71
2022/11/03 09:57:44;;;;;;;10.60;4.10;;;;;;;22.00;41.80;101104.73;116255;1291;22480;-70
2022/11/03 10:00:33;;;;;;;5.60;4.30;;;;;;;21.83;41.34;101103.14;116280;1300;22527;-71
2022/11/03 10:03:22;;;;;;;8.10;3.80;;;;;;;21.36;40.86;101100.85;116272;1291;22463;-73
2022/11/03 10:06:11;;;;;;;10.20;4.70;;;;;;;20.66;41.29;101099.73;116250;1305;25390;-72
2022/11/03 10:09:00;;;;;;;6.50;4.50;;;;;;;19.93;42.18;101096.95;116352;1290;22591;-72
2022/11/03 10:11:50;;;;;;;8.30;4.40;;;;;;;19.26;43.09;101100.20;116333;1306;22464;-72
2022/11/03 10:14:39;;;;;;;9.60;4.70;;;;;;;18.65;43.73;101098.64;116313;1307;22459;-71
2022/11/03 10:17:30;;;;;;;9.30;4.90;;;;;;;18.04;44.59;101094.63;116246;1291;22520;-72
2022/11/03 10:20:20;;;;;;;10.50;5.30;;;;;;;17.49;45.90;101087.43;116260;1307;25398;-75
2022/11/03 10:23:10;;;;;;;9.00;5.70;;;;;;;17.10;46.93;101089.94;116283;1291;25381;-76
2022/11/03 10:26:03;;;;;;;12.70;4.50;;;;;;;16.72;47.64;101088.77;116318;1307;22478;-74
2022/11/03 10:29:09;;;;;;;8.70;3.70;;;;;;;16.31;48.28;101083.77;116329;1286;24376;-74
2022/11/03 10:32:00;;;;;;;10.00;4.00;;;;;;;16.00;49.30;101085.88;116256;1288;22452;-73
2022/11/03 10:34:51;;;;;;;10.10;3.60;;;;;;;15.75;49.64;101080.77;116264;1307;22518;-75
2022/11/03 10:37:40;;;;;;;15.80;4.20;;;;;;;15.44;50.22;101088.04;116239;1284;22475;-75
2022/11/03 10:40:38;;;;;;;12.10;3.60;;;;;;;15.20;50.95;101091.22;116297;1307;22448;-74
2022/11/03 10:43:27;;;;;;;15.50;5.00;;;;;;;14.99;51.44;101090.61;116264;1291;22558;-73
2022/11/03 10:46:21;;;;;;;11.10;3.40;;;;;;;14.81;52.03;101088.23;116234;1305;22475;-73
2022/11/03 10:49:15;;;;;;;11.10;2.70;;;;;;;14.70;52.54;101084.71;116197;1289;25260;-73
2022/11/03 10:52:16;;;;;;;7.40;2.90;;;;;;;14.57;52.73;101080.33;116299;1285;22478;-73
2022/11/03 10:55:06;;;;;;;9.40;4.20;;;;;;;14.46;53.17;101079.05;116291;1304;22582;-74
2022/11/03 10:57:56;;;;;;;7.50;2.90;;;;;;;14.34;53.38;101073.94;116274;1285;25209;-74
2022/11/03 11:00:45;;;;;;;8.30;3.30;;;;;;;14.25;53.70;101071.30;116345;1305;22466;-74
2022/11/03 11:03:35;;;;;;;7.40;2.70;;;;;;;14.18;53.80;101067.93;116284;1307;25358;-75
2022/11/03 11:06:25;;;;;;;6.80;2.50;;;;;;;14.10;53.90;101067.21;116267;1289;25293;-75
2022/11/03 11:09:20;;;;;;;6.20;2.50;;;;;;;14.00;54.12;101065.70;116306;1306;22569;-73
2022/11/03 11:12:17;;;;;;;7.50;2.50;;;;;;;13.91;54.13;101060.77;116264;1307;22503;-72
2022/11/03 11:15:38;;;;;;;8.60;3.00;;;;;;;13.85;54.33;101056.84;116280;1300;22627;-75
2022/11/03 11:19:03;;;;;;;7.70;2.70;;;;;;;13.75;54.10;101053.20;116310;1307;22501;-73
2022/11/03 11:22:24;;;;;;;6.90;2.30;;;;;;;13.64;54.09;101044.85;116301;1304;22527;-73
2022/11/03 11:25:11;;;;;;;;;;;;;;;13.55;54.32;101040.31;116304;1307;22466;-72
2022/11/03 11:28:12;;;;;;;8.20;2.60;;;;;;;13.48;54.35;101035.91;116304;1302;22944;-73
2022/11/03 11:31:33;;;;;;;5.70;2.30;;;;;;;13.43;54.52;101033.24;116294;1299;22473;-72
2022/11/03 11:34:42;;;;;;;12.40;3.50;;;;;;;13.38;54.72;101032.39;116337;1298;22487;-72
2022/11/03 11:37:45;;;;;;;8.80;2.80;;;;;;;13.35;54.55;101026.39;116218;1307;24284;-72
2022/11/03 11:40:54;;;;;;;60.10;27.70;;;;;;;13.31;55.45;101020.60;116309;1307;22471;-71
2022/11/03 11:43:44;;;;;;;188.00;84.70;;;;;;;13.30;56.88;101019.57;116312;1307;22423;-71
2022/11/03 11:46:42;;;;;;;;;;;;;;;13.23;56.41;101017.57;116281;1299;22474;-71
2022/11/03 11:49:31;;;;;;;9.00;4.10;;;;;;;13.18;55.66;101012.09;116294;1307;22513;-72
2022/11/03 11:52:20;;;;;;;8.90;3.00;;;;;;;13.16;55.54;101013.41;116256;1307;22542;-72
2022/11/03 11:55:19;;;;;;;6.00;2.50;;;;;;;13.14;55.17;101007.73;116290;1279;22476;-71
2022/11/03 11:58:19;;;;;;;6.80;2.50;;;;;;;13.10;55.05;101002.27;116277;1306;22437;-70
2022/11/03 12:01:23;;;;;;;9.60;2.70;;;;;;;13.07;54.89;101002.02;116325;1295;22417;-69
2022/11/03 12:04:20;;;;;;;6.30;2.80;;;;;;;13.03;55.04;101002.70;116247;1291;22483;-75
2022/11/03 12:07:13;;;;;;;50.10;22.30;;;;;;;12.99;55.41;101003.20;116247;1294;22466;-74
2022/11/03 12:10:12;;;;;;;106.90;43.60;;;;;;;12.96;56.34;101004.55;116317;1306;25391;-72
2022/11/03 12:13:01;;;;;;;34.20;14.90;;;;;;;12.90;57.19;101000.91;116263;1292;22509;-71
2022/11/03 12:15:57;;;;;;;24.20;10.00;;;;;;;12.88;57.56;100996.80;116287;1307;22849;-70
2022/11/03 12:18:46;;;;;;;83.10;35.50;;;;;;;12.86;57.60;100989.52;116289;1307;22434;-72
2022/11/03 12:21:51;;;;;;;58.10;23.50;;;;;;;12.86;57.68;100988.13;116279;1307;22427;-72
2022/11/03 12:24:50;;;;;;;75.80;28.30;;;;;;;12.87;57.37;100983.37;116303;1307;22449;-75
2022/11/03 12:27:46;;;;;;;22.40;8.90;;;;;;;12.87;57.74;100980.73;116285;1294;24421;-74
2022/11/03 12:30:36;;;;;;;41.90;14.20;;;;;;;12.86;57.70;100979.17;116312;1307;24375;-75
2022/11/03 12:33:25;;;;;;;45.70;15.90;;;;;;;12.85;57.97;100978.17;116319;1301;22477;-73
2022/11/03 12:36:14;;;;;;;258.10;43.70;;;;;;;12.84;58.04;100979.23;116259;1307;22474;-75
2022/11/03 12:39:03;;;;;;;18.30;5.60;;;;;;;12.85;57.76;100980.62;116303;1293;24317;-75
2022/11/03 12:41:52;;;;;;;15.90;3.90;;;;;;;12.84;57.14;100975.89;116191;1292;24420;-73
2022/11/03 12:44:41;;;;;;;10.20;3.00;;;;;;;12.85;57.35;100975.19;116290;1305;22531;-74
2022/11/03 12:47:30;;;;;;;10.80;2.10;;;;;;;12.85;57.73;100973.78;116253;1303;22767;-74
2022/11/03 12:50:20;;;;;;;5.10;2.10;;;;;;;12.85;57.19;100972.77;116290;1287;22454;-75
2022/11/03 12:53:09;;;;;;;8.90;2.90;;;;;;;12.83;57.59;100971.75;116254;1307;22510;-75
2022/11/03 12:55:58;;;;;;;8.30;2.20;;;;;;;12.81;57.28;100971.84;116272;1289;22429;-71
2022/11/03 12:58:47;;;;;;;7.10;2.60;;;;;;;12.78;56.99;100964.62;116274;1299;22468;-72
2022/11/03 13:01:36;;;;;;;13.30;3.50;;;;;;;12.72;57.61;100966.76;116262;1286;22456;-73
2022/11/03 13:04:25;;;;;;;8.70;3.60;;;;;;;12.66;57.61;100962.08;116311;1307;24798;-73
2022/11/03 13:07:14;;;;;;;6.30;2.90;;;;;;;12.60;57.60;100963.01;116234;1288;22493;-71
2022/11/03 13:10:04;;;;;;;8.30;2.30;;;;;;;12.54;57.73;100961.83;116285;1307;22783;-75
2022/11/03 13:12:53;;;;;;;7.90;2.10;;;;;;;12.48;57.84;100962.05;116281;1305;22585;-76
2022/11/03 13:15:42;;;;;;;7.80;2.00;;;;;;;12.42;58.00;100964.20;116309;1307;23875;-73
2022/11/03 13:18:30;;;;;;;6.80;2.50;;;;;;;12.36;57.88;100963.67;116284;1295;22583;-74
2022/11/03 13:21:19;;;;;;;5.30;2.30;;;;;;;12.32;57.78;100956.31;116277;1288;25400;-74
2022/11/03 13:24:09;;;;;;;7.00;2.10;;;;;;;12.29;57.94;100959.41;116297;1285;22483;-72
2022/11/03 13:26:57;;;;;;;6.40;1.80;;;;;;;12.28;58.07;100962.77;116264;1303;22910;-70
2022/11/03 13:29:47;;;;;;;4.50;1.90;;;;;;;12.24;58.18;100960.79;116295;1297;22728;-73
2022/11/03 13:32:35;;;;;;;6.40;2.40;;;;;;;12.24;57.92;100957.16;116289;1288;22566;-72
2022/11/03 13:35:24;;;;;;;5.80;2.40;;;;;;;12.22;57.89;100955.30;116289;1307;22439;-76
2022/11/03 13:38:13;;;;;;;8.60;1.90;;;;;;;12.19;58.39;100953.63;116244;1290;22569;-76
2022/11/03 13:41:01;;;;;;;;;;;;;;;12.19;58.05;100945.60;116292;1307;22456;-72
2022/11/03 13:43:50;;;;;;;7.20;2.10;;;;;;;12.16;58.23;100944.11;116303;1291;22481;-72
2022/11/03 13:46:39;;;;;;;5.90;2.00;;;;;;;12.17;58.48;100943.92;116299;1285;22451;-72
2022/11/03 13:49:27;;;;;;;4.20;2.20;;;;;;;12.18;58.82;100941.44;116310;1286;22491;-74
2022/11/03 13:52:16;;;;;;;9.00;2.10;;;;;;;12.18;58.73;100936.36;116282;1285;22459;-74
2022/11/03 13:55:06;;;;;;;9.30;2.70;;;;;;;12.16;59.11;100936.09;116298;1299;22471;-73
2022/11/03 13:57:55;;;;;;;6.80;1.70;;;;;;;12.10;58.91;100936.30;116287;1299;22505;-73
2022/11/03 14:00:44;;;;;;;5.50;1.40;;;;;;;12.02;58.40;100934.99;116312;1286;22538;-75
2022/11/03 14:03:33;;;;;;;3.70;1.90;;;;;;;11.90;58.61;100931.05;116290;1304;22478;-72
2022/11/03 14:06:25;;;;;;;6.40;2.20;;;;;;;11.78;58.72;100930.73;116151;1307;22544;-73
2022/11/03 14:09:14;;;;;;;10.30;1.80;;;;;;;11.62;58.72;100929.34;116296;1284;22471;-71
2022/11/03 14:15:11;;;;;;;10.30;3.40;;;;;;;11.33;58.96;100926.45;116299;1307;22456;-73
2022/11/03 14:18:01;;;;;;;8.20;2.90;;;;;;;11.22;59.57;100926.82;116271;1282;22482;-72
2022/11/03 14:20:50;;;;;;;9.40;3.40;;;;;;;11.10;59.64;100924.74;116298;1285;22500;-74
2022/11/03 14:23:39;;;;;;;6.50;2.40;;;;;;;10.97;59.88;100925.84;116313;1292;22456;-70
2022/11/03 14:26:28;;;;;;;7.50;2.30;;;;;;;10.85;59.78;100925.33;116308;1307;22086;-78
2022/11/03 14:29:17;;;;;;;5.70;2.00;;;;;;;10.74;60.16;100926.20;116289;1288;24265;-71
2022/11/03 14:32:07;;;;;;;7.60;2.40;;;;;;;10.62;60.61;100927.40;116318;1287;22592;-71
2022/11/03 14:34:56;;;;;;;7.70;1.60;;;;;;;10.55;60.76;100923.25;116300;1287;22413;-73
2022/11/03 14:37:45;;;;;;;4.60;1.60;;;;;;;10.50;61.10;100922.01;116287;1299;22470;-75
2022/11/03 14:43:41;;;;;;;4.10;1.90;;;;;;;10.42;61.68;100914.39;116251;1306;22652;-74
2022/11/03 14:46:30;;;;;;;4.30;1.70;;;;;;;10.34;62.14;100914.08;116292;1291;22494;-74
2022/11/03 14:49:19;;;;;;;8.40;2.10;;;;;;;10.24;62.18;100908.77;116297;1305;22605;-72
2022/11/03 14:52:09;;;;;;;4.00;1.70;;;;;;;10.14;62.45;100911.31;116276;1291;25388;-72
2022/11/03 14:54:57;;;;;;;10.30;2.00;;;;;;;10.02;62.90;100911.10;116321;1307;22449;-74
2022/11/03 14:57:47;;;;;;;9.80;1.90;;;;;;;9.90;63.23;100908.83;116347;1285;22458;-75
2022/11/03 15:00:36;;;;;;;4.60;2.00;;;;;;;9.75;63.56;100902.40;116192;1307;22511;-72
2022/11/03 15:03:25;;;;;;;5.10;1.80;;;;;;;9.64;63.83;100901.13;116282;1298;25381;-74
2022/11/03 15:06:14;;;;;;;4.50;1.40;;;;;;;9.57;64.34;100902.52;116369;1296;22421;-74
2022/11/03 15:09:03;;;;;;;5.70;1.80;;;;;;;9.51;64.55;100901.98;116362;1287;22532;-73
2022/11/03 15:11:52;;;;;;;8.30;2.80;;;;;;;9.44;64.75;100902.85;116179;1287;22557;-72
2022/11/03 15:14:42;;;;;;;6.80;1.70;;;;;;;9.37;64.77;100901.63;116300;1298;22483;-73
2022/11/03 15:17:30;;;;;;;7.20;2.10;;;;;;;9.27;64.94;100901.37;116281;1304;22462;-71
2022/11/03 15:20:20;;;;;;;7.70;1.50;;;;;;;9.13;65.11;100901.17;116323;1292;22487;-72
2022/11/03 15:23:09;;;;;;;6.90;1.70;;;;;;;9.00;65.37;100902.15;116307;1301;22433;-73
2022/11/03 15:25:58;;;;;;;3.70;1.40;;;;;;;8.87;65.70;100895.52;116262;1305;22459;-72
2022/11/03 15:28:46;;;;;;;7.30;2.50;;;;;;;8.79;65.99;100898.11;116309;1307;25428;-71
2022/11/03 15:31:35;;;;;;;6.00;1.80;;;;;;;8.71;66.19;100892.73;116290;1304;24214;-72
2022/11/03 15:34:25;;;;;;;6.50;1.70;;;;;;;8.62;66.56;100893.96;116347;1298;22440;-72
2022/11/03 15:37:14;;;;;;;3.20;1.60;;;;;;;8.54;66.95;100888.05;116429;1285;22479;-73
2022/11/03 15:40:03;;;;;;;7.90;1.90;;;;;;;8.44;66.90;100888.09;116300;1304;22488;-73
2022/11/03 15:42:52;;;;;;;7.00;2.80;;;;;;;8.30;67.14;100883.13;116377;1288;24263;-73
2022/11/03 15:45:40;;;;;;;4.90;2.00;;;;;;;8.17;67.36;100877.13;116327;1282;22470;-74
2022/11/03 15:48:30;;;;;;;5.70;2.20;;;;;;;8.08;67.62;100871.75;116385;1284;22526;-72
2022/11/03 15:51:19;;;;;;;5.90;2.20;;;;;;;8.01;68.01;100868.59;116258;1305;22459;-73
2022/11/03 15:54:08;;;;;;;4.00;1.90;;;;;;;7.96;68.28;100863.13;116286;1299;22466;-73
2022/11/03 15:56:57;;;;;;;5.20;1.60;;;;;;;7.91;68.48;100861.30;116325;1285;22474;-73
2022/11/03 15:59:46;;;;;;;6.50;2.20;;;;;;;7.82;68.54;100867.56;116323;1294;22466;-72
2022/11/03 16:02:35;;;;;;;8.50;1.70;;;;;;;7.71;68.85;100873.33;116257;1303;22443;-72
2022/11/03 16:05:24;;;;;;;4.00;1.40;;;;;;;7.58;68.88;100866.09;116291;1292;22431;-74
2022/11/03 16:08:14;;;;;;;3.70;1.50;;;;;;;7.49;68.99;100864.00;116255;1307;22506;-70
2022/11/03 16:11:02;;;;;;;;;;;;;;;7.44;69.26;100862.69;116301;1287;25396;-71
2022/11/03 16:13:49;;;;;;;;;;;;;;;7.39;69.86;100858.08;116334;1305;22449;-73
2022/11/03 16:16:36;;;;;;;;;;;;;;;7.35;70.24;100853.82;116485;1299;22440;-74
2022/11/03 16:19:23;;;;;;;;;;;;;;;7.28;70.37;100851.67;116357;1307;25397;-73
2022/11/03 16:22:10;;;;;;;;;;;;;;;7.15;69.93;100848.77;116252;1307;22457;-75
2022/11/03 16:24:58;;;;;;;;;;;;;;;7.02;70.13;100847.09;116417;1285;22471;-74
2022/11/03 16:27:48;;;;;;;;;;;;;;;6.89;70.40;100850.20;116402;1307;22571;-74
2022/11/03 16:30:37;;;;;;;;;;;;;;;6.75;70.41;100851.13;116396;1307;22456;-73
2022/11/03 16:33:24;;;;;;;;;;;;;;;6.61;70.87;100843.00;116308;1277;22460;-73
2022/11/03 16:36:11;;;;;;;;;;;;;;;6.50;70.93;100841.24;116289;1299;22421;-75
2022/11/03 16:39:01;;;;;;;;;;;;;;;6.44;71.51;100844.27;116305;1297;22450;-73
2022/11/03 16:41:53;;;;;;;;;;;;;;;6.43;71.98;100844.64;116299;1291;25358;-74
2022/11/03 16:44:44;;;;;;;;;;;;;;;6.44;72.11;100834.39;116325;1304;22454;-74
2022/11/03 16:47:34;;;;;;;;;;;;;;;6.43;72.34;100825.21;116289;1303;22467;-72
2022/11/03 16:50:21;;;;;;;;;;;;;;;6.37;72.31;100816.65;115979;1287;464200;-71
2022/11/03 16:53:09;;;;;;;;;;;;;;;6.32;72.70;100804.94;116293;1277;22452;-72
2022/11/03 16:55:56;;;;;;;;;;;;;;;6.29;72.99;100800.12;116325;1283;22438;-72
2022/11/03 16:58:43;;;;;;;;;;;;;;;6.25;73.23;100796.55;116345;1288;22570;-72
2022/11/03 17:01:32;;;;;;;;;;;;;;;6.20;73.13;100792.61;116262;1294;25255;-75
2022/11/03 17:04:19;;;;;;;;;;;;;;;6.11;72.85;100788.92;116382;1282;22519;-70
2022/11/03 17:07:08;;;;;;;;;;;;;;;6.04;73.11;100784.86;116322;1303;22438;-71
2022/11/03 17:09:55;;;;;;;;;;;;;;;6.02;73.34;100779.55;116320;1285;22524;-74
2022/11/03 17:12:43;;;;;;;;;;;;;;;6.01;73.48;100776.23;116364;1298;25312;-73
2022/11/03 17:15:32;;;;;;;;;;;;;;;6.04;73.54;100768.40;116358;1278;22487;-74
2022/11/03 17:18:21;;;;;;;;;;;;;;;6.07;73.78;100764.73;116355;1285;22452;-71
2022/11/03 17:21:11;;;;;;;;;;;;;;;6.14;73.87;100758.58;116304;1303;22449;-72
2022/11/03 17:24:01;;;;;;;;;;;;;;;6.16;74.04;100748.85;116347;1285;22492;-71
2022/11/03 17:26:54;;;;;;;;;;;;;;;6.20;74.43;100752.77;116264;1303;24327;-71
2022/11/03 17:29:43;;;;;;;;;;;;;;;6.19;74.03;100754.52;116336;1303;25369;-71
2022/11/03 17:32:31;;;;;;;;;;;;;;;6.07;74.17;100759.20;116308;1303;22392;-70
2022/11/03 17:35:21;;;;;;;;;;;;;;;5.94;74.18;100764.38;116324;1282;22445;-70
2022/11/03 17:38:12;;;;;;;;;;;;;;;5.81;74.16;100768.33;116319;1297;24784;-70
2022/11/03 17:40:59;;;;;;;;;;;;;;;5.69;74.42;100767.44;116340;1299;22516;-70
2022/11/03 17:43:46;;;;;;;;;;;;;;;5.56;74.59;100766.86;116324;1303;22940;-74
2022/11/03 17:46:34;;;;;;;;;;;;;;;5.42;74.58;100761.48;116319;1298;22447;-74
2022/11/03 17:49:22;;;;;;;;;;;;;;;5.31;74.86;100759.37;116552;1259;22436;-71
2022/11/03 17:52:13;;;;;;;;;;;;;;;5.24;75.14;100759.09;116454;1285;22477;-71
2022/11/03 17:55:02;;;;;;;;;;;;;;;5.21;75.40;100758.59;116243;1306;22546;-73
2022/11/03 17:57:49;;;;;;;;;;;;;;;5.21;75.50;100759.64;116283;1285;22452;-72
2022/11/03 18:00:41;;;;;;;;;;;;;;;5.22;75.71;100762.03;116287;1307;22439;-72
2022/11/03 18:03:29;;;;;;;;;;;;;;;5.21;75.86;100765.84;116288;1306;22394;-71
2022/11/03 18:06:21;;;;;;;;;;;;;;;5.19;75.95;100762.08;116223;1299;22454;-70
2022/11/03 18:09:08;;;;;;;;;;;;;;;5.14;75.56;100763.15;116378;1297;22490;-72
2022/11/03 18:15:08;;;;;;;;;;;;;;;4.98;75.98;100765.55;116376;1304;22618;-69
2022/11/03 18:17:56;;;;;;;;;;;;;;;4.87;76.04;100763.91;116230;1307;22501;-72
2022/11/03 18:20:48;;;;;;;;;;;;;;;4.80;76.29;100762.77;116282;1283;22436;-71
2022/11/03 18:23:36;;;;;;;;;;;;;;;4.72;76.56;100753.33;116320;1287;22448;-72
2022/11/03 18:26:24;;;;;;;;;;;;;;;4.69;76.44;100752.66;116294;1287;22450;-74
2022/11/03 18:29:12;;;;;;;;;;;;;;;4.67;76.58;100748.34;116274;1294;25374;-73
2022/11/03 18:32:02;;;;;;;;;;;;;;;4.67;76.64;100745.92;116261;1299;22448;-71
2022/11/03 18:34:52;;;;;;;;;;;;;;;4.69;76.98;100740.75;116271;1305;25393;-72
2022/11/03 18:37:39;;;;;;;;;;;;;;;4.70;76.94;100738.48;116269;1278;25362;-73
2022/11/03 18:40:33;;;;;;;;;;;;;;;4.69;76.77;100731.24;116296;1299;25372;-73
2022/11/03 18:43:22;;;;;;;;;;;;;;;4.65;77.11;100728.31;116302;1301;22485;-72
2022/11/03 18:46:11;;;;;;;;;;;;;;;4.60;77.06;100726.80;116308;1285;22478;-72
2022/11/03 18:48:59;;;;;;;;;;;;;;;4.55;77.49;100722.35;116285;1280;22461;-71
2022/11/03 18:51:48;;;;;;;;;;;;;;;4.46;77.35;100718.09;116285;1307;22521;-69
2022/11/03 18:54:36;;;;;;;;;;;;;;;4.38;77.30;100712.28;116339;1305;22455;-72
2022/11/03 18:57:26;;;;;;;;;;;;;;;4.35;77.29;100708.16;116269;1286;24258;-70
2022/11/03 19:00:21;;;;;;;;;;;;;;;4.33;77.16;100705.06;116282;1287;22437;-69
2022/11/03 19:03:15;;;;;;;;;;;;;;;4.33;77.76;100699.70;116293;1286;22527;-71
2022/11/03 19:06:02;;;;;;;;;;;;;;;4.36;78.11;100694.34;116242;1288;22439;-71
2022/11/03 19:08:50;;;;;;;;;;;;;;;4.37;78.14;100688.98;116277;1294;22472;-72
2022/11/03 19:11:40;;;;;;;;;;;;;;;4.37;78.03;100684.48;116283;1307;22486;-72
2022/11/03 19:14:32;;;;;;;;;;;;;;;4.35;78.34;100684.66;116266;1284;24393;-71
2022/11/03 19:17:21;;;;;;;;;;;;;;;4.33;78.20;100679.52;116277;1307;24273;-72
2022/11/03 19:20:15;;;;;;;;;;;;;;;4.26;78.34;100674.04;116313;1275;22454;-73
2022/11/03 19:23:03;;;;;;;;;;;;;;;4.18;78.29;100672.89;116254;1307;22448;-73
2022/11/03 19:25:51;;;;;;;;;;;;;;;4.11;78.44;100670.34;116291;1307;24264;-73
2022/11/03 19:28:39;;;;;;;;;;;;;;;4.05;78.70;100663.13;116301;1299;22449;-70
2022/11/03 19:31:30;;;;;;;;;;;;;;;4.08;79.04;100663.11;116194;1307;22439;-68
2022/11/03 19:34:18;;;;;;;;;;;;;;;4.14;79.41;100664.11;116315;1297;22466;-71
2022/11/03 19:37:06;;;;;;;;;;;;;;;4.20;79.53;100660.62;116286;1305;22466;-73
2022/11/03 19:39:54;;;;;;;;;;;;;;;4.26;79.89;100657.98;116284;1281;22461;-73
2022/11/03 19:42:41;;;;;;;;;;;;;;;4.33;80.12;100655.16;116180;1288;22537;-73
2022/11/03 19:45:29;;;;;;;;;;;;;;;4.39;80.21;100650.79;116295;1298;24254;-71
2022/11/03 19:48:17;;;;;;;;;;;;;;;4.41;80.07;100646.27;116289;1287;22448;-70
2022/11/03 19:51:05;;;;;;;;;;;;;;;4.45;80.59;100642.62;116257;1298;23772;-70
2022/11/03 19:53:55;;;;;;;;;;;;;;;4.49;80.64;100644.14;116285;1271;25195;-68
2022/11/03 19:56:45;;;;;;;;;;;;;;;4.44;80.22;100642.62;116226;1306;22507;-68
2022/11/03 19:59:35;;;;;;;;;;;;;;;4.37;80.33;100638.37;116243;1288;22435;-69
2022/11/03 20:02:28;;;;;;;;;;;;;;;4.30;80.16;100639.63;116242;1306;24007;-71
2022/11/03 20:05:18;;;;;;;;;;;;;;;4.24;80.36;100638.65;116278;1307;22444;-67
2022/11/03 20:08:11;;;;;;;;;;;;;;;4.24;80.92;100635.37;116247;1288;22452;-69
2022/11/03 20:10:59;;;;;;;;;;;;;;;4.26;81.10;100628.96;116297;1291;25396;-71
2022/11/03 20:13:50;;;;;;;;;;;;;;;4.33;81.58;100624.77;116262;1287;22450;-72
2022/11/03 20:16:41;;;;;;;;;;;;;;;4.45;82.13;100620.34;116265;1298;24368;-72
2022/11/03 20:19:29;;;;;;;;;;;;;;;4.60;82.00;100616.91;116306;1285;22475;-72
2022/11/03 20:22:20;;;;;;;;;;;;;;;4.68;81.58;100618.39;116276;1285;25422;-71
2022/11/03 20:25:09;;;;;;;;;;;;;;;4.74;81.32;100620.77;116294;1299;22461;-69
2022/11/03 20:27:59;;;;;;;;;;;;;;;4.73;81.12;100613.34;116319;1294;22464;-71
2022/11/03 20:30:46;;;;;;;;;;;;;;;4.78;81.13;100615.01;116295;1307;22443;-71
2022/11/03 20:33:36;;;;;;;;;;;;;;;4.78;80.92;100619.33;116300;1305;24232;-72
2022/11/03 20:36:23;;;;;;;;;;;;;;;4.74;80.86;100619.20;116143;1301;22445;-72
2022/11/03 20:39:13;;;;;;;;;;;;;;;4.67;80.90;100613.74;116330;1290;22416;-70